ISZ weather

CLOSED Cincinnati Blue Ash Airport
Cincinnati, Ohio, United States

Public forecast

Using degrees Fahrenheit for public forecast. Weather courtesy of forecast.io.

METAR (pilot weather report)

Closest report is Cincinnati Municipal Airport Lunken Field, 8.7 nm (16.1 km) S. Retrieved 2019/03/22 12:53 UTC (56 minutes ago):

KLUK 221253Z 25015KT 10SM CLR 05/01 A2993 RMK AO2 SLP136 T00500011

TAF (pilot weather forecast)

Closest forecast is Cincinnati Municipal Airport Lunken Field, 8.7 nm (16.1 km) S. Retrieved 2019/03/22 12:24 UTC (1 hour ago):

TAF KLUK 221121Z 2212/2312 25010KT P6SM FEW035 FM221400 30012G20KT P6SM SCT035 FM221700 32016G26KT P6SM BKN040 FM222100 31012G18KT P6SM SCT050 FM230100 32010KT P6SM FEW050 FM230900 32005KT P6SM SKC